Time;durP1;ratioP1;P1;durP2;ratioP2;P2;SDS_P1;SDS_P2;PMS_P1;PMS_P2;Temp;Humidity;BMP_temperature;BMP_pressure;BME280_temperature;BME280_humidity;BME280_pressure;Samples;Min_cycle;Max_cycle;Signal;HPM_P1;HPM_P2
2021/03/12 00:01:08;;;;;;;41.23;29.35;;;;;;;3.72;82.09;98797.81;1722155;81;25700;-67
2021/03/12 00:03:36;;;;;;;42.90;31.20;;;;;;;3.71;82.06;98793.14;1712562;81;26266;-67
2021/03/12 00:06:10;;;;;;;41.98;30.05;;;;;;;3.69;81.95;98796.36;1720924;81;26040;-67
2021/03/12 00:08:44;;;;;;;44.83;30.02;;;;;;;3.63;81.91;98786.66;1722107;80;25787;-68
2021/03/12 00:11:11;;;;;;;42.13;29.45;;;;;;;3.63;82.02;98783.25;1715138;82;25752;-68
2021/03/12 00:13:38;;;;;;;44.13;29.48;;;;;;;3.67;82.13;98784.08;1679044;81;25669;-68
2021/03/12 00:16:06;;;;;;;46.40;31.30;;;;;;;3.66;82.09;98782.47;1732495;79;25883;-68
2021/03/12 00:18:40;;;;;;;46.20;28.20;;;;;;;3.67;82.13;98771.16;1693548;82;25661;-68
2021/03/12 00:21:08;;;;;;;44.73;29.72;;;;;;;3.66;82.18;98776.01;1674025;84;25733;-68
2021/03/12 00:23:35;;;;;;;40.17;29.90;;;;;;;3.69;82.18;98773.59;1691109;82;26551;-68
2021/03/12 00:26:03;;;;;;;42.17;30.17;;;;;;;3.63;82.06;98771.17;1636237;85;25316;-68
2021/03/12 00:28:30;;;;;;;42.88;30.20;;;;;;;3.59;82.13;98760.02;1673818;82;25534;-69
2021/03/12 00:30:57;;;;;;;45.45;30.68;;;;;;;3.60;82.29;98752.58;1746907;80;25288;-68
2021/03/12 00:33:27;;;;;;;45.28;30.50;;;;;;;3.56;82.24;98753.39;1717501;81;25279;-68
2021/03/12 00:35:53;;;;;;;46.35;31.15;;;;;;;3.58;82.38;98758.41;1705317;82;25891;-68
2021/03/12 00:38:20;;;;;;;47.23;31.73;;;;;;;3.54;82.44;98751.44;1719149;80;26283;-68
2021/03/12 00:40:52;;;;;;;42.70;29.48;;;;;;;3.54;82.47;98754.02;1712922;82;25999;-68
2021/03/12 00:43:19;;;;;;;47.38;31.48;;;;;;;3.56;82.46;98751.61;1721176;80;25786;-68
2021/03/12 00:45:54;;;;;;;47.17;31.68;;;;;;;3.57;82.43;98745.95;1708851;80;25908;-68
2021/03/12 00:48:20;;;;;;;44.30;29.23;;;;;;;3.56;82.46;98746.93;1714565;82;25653;-67
2021/03/12 00:50:47;;;;;;;42.55;29.57;;;;;;;3.60;82.56;98748.23;1702802;82;25748;-67
2021/03/12 00:53:20;;;;;;;41.08;27.77;;;;;;;3.62;82.56;98748.86;1715911;81;25292;-67
2021/03/12 00:55:47;;;;;;;45.12;30.40;;;;;;;3.68;82.62;98759.88;1721207;82;25728;-68
2021/03/12 00:58:16;;;;;;;42.90;28.40;;;;;;;3.69;82.79;98769.23;1724042;81;25754;-68
2021/03/12 01:00:43;;;;;;;43.28;29.37;;;;;;;3.69;82.58;98764.06;1728240;80;25917;-67
2021/03/12 01:03:12;;;;;;;41.98;28.73;;;;;;;3.73;82.61;98761.95;1725945;81;25490;-68
2021/03/12 01:05:40;;;;;;;42.90;28.47;;;;;;;3.76;82.66;98761.17;1723661;81;25655;-68
2021/03/12 01:08:10;;;;;;;42.17;27.82;;;;;;;3.76;82.94;98765.05;1712470;82;25802;-68
2021/03/12 01:10:38;;;;;;;42.03;28.87;;;;;;;3.77;82.87;98748.56;1746035;80;25670;-68
2021/03/12 01:13:05;;;;;;;40.67;26.85;;;;;;;3.81;82.94;98749.04;1716776;80;26396;-67
2021/03/12 01:15:32;;;;;;;43.50;28.52;;;;;;;3.81;83.37;98743.06;1717350;80;25749;-68
2021/03/12 01:18:01;;;;;;;45.05;29.75;;;;;;;3.83;83.34;98733.38;1737312;81;25661;-68
2021/03/12 01:20:32;;;;;;;39.75;25.62;;;;;;;3.86;83.20;98728.69;1734008;81;25651;-67
2021/03/12 01:23:00;;;;;;;39.80;27.40;;;;;;;3.91;83.44;98730.80;1726388;80;25778;-68
2021/03/12 01:25:32;;;;;;;41.10;27.13;;;;;;;3.91;83.26;98730.80;1702830;83;25778;-68
2021/03/12 01:27:59;;;;;;;38.23;25.30;;;;;;;3.94;83.40;98735.14;1725736;81;26226;-68
2021/03/12 01:30:33;;;;;;;37.55;25.52;;;;;;;3.95;83.75;98729.00;1706633;81;26394;-70
2021/03/12 01:33:03;;;;;;;35.45;23.55;;;;;;;3.99;83.91;98738.55;1738551;80;25729;-68
2021/03/12 01:35:30;;;;;;;35.05;24.65;;;;;;;4.00;84.60;98743.53;1713198;81;25245;-68
2021/03/12 01:37:57;;;;;;;37.03;23.25;;;;;;;4.04;84.45;98742.75;1714002;81;25744;-67
2021/03/12 01:40:26;;;;;;;34.38;21.85;;;;;;;4.09;84.64;98742.23;1666518;83;25750;-68
2021/03/12 01:42:56;;;;;;;32.48;22.35;;;;;;;4.12;84.77;98736.73;1677112;81;25622;-68
2021/03/12 01:45:31;;;;;;;35.65;23.62;;;;;;;4.17;84.57;98747.40;1696932;82;25706;-70
2021/03/12 01:48:00;;;;;;;37.80;22.62;;;;;;;4.23;84.94;98744.98;1696552;81;25737;-71
2021/03/12 01:50:28;;;;;;;33.20;22.15;;;;;;;4.28;85.06;98743.17;1714884;80;25865;-71
2021/03/12 01:52:55;;;;;;;32.42;20.88;;;;;;;4.33;84.89;98751.73;1745606;81;25734;-71
2021/03/12 01:55:33;;;;;;;36.63;24.15;;;;;;;4.38;85.13;98750.77;1721266;82;25893;-71
2021/03/12 01:58:03;;;;;;;33.50;22.37;;;;;;;4.43;84.87;98732.48;1726877;81;26192;-70
2021/03/12 02:00:32;;;;;;;34.27;22.90;;;;;;;4.44;84.64;98730.70;1687018;82;25700;-71
2021/03/12 02:03:01;;;;;;;31.00;22.37;;;;;;;4.43;84.99;98736.86;1687998;82;25761;-71
2021/03/12 02:05:38;;;;;;;32.20;22.82;;;;;;;4.43;85.00;98744.61;1720676;82;25713;-71
2021/03/12 02:08:05;;;;;;;32.73;22.50;;;;;;;4.42;84.71;98737.84;1697182;82;26251;-71
2021/03/12 02:10:37;;;;;;;38.38;23.18;;;;;;;4.42;84.51;98730.08;1696969;81;25749;-71
2021/03/12 02:13:34;;;;;;;35.68;22.73;;;;;;;4.40;84.60;98722.47;1714278;80;25380;-71
2021/03/12 02:16:27;;;;;;;30.92;21.17;;;;;;;4.42;84.53;98730.08;1688273;81;25930;-68
2021/03/12 02:19:14;;;;;;;32.08;22.07;;;;;;;4.41;84.52;98729.73;1701896;81;25927;-68
2021/03/12 02:21:52;;;;;;;31.82;20.40;;;;;;;4.41;84.29;98728.45;1721216;81;25348;-71
2021/03/12 02:24:45;;;;;;;33.18;21.45;;;;;;;4.42;84.53;98746.89;1728481;80;25684;-71
2021/03/12 02:27:15;;;;;;;34.92;21.85;;;;;;;4.41;84.32;98734.91;1707685;81;25878;-71
2021/03/12 02:29:47;;;;;;;30.62;19.77;;;;;;;4.42;84.61;98745.59;1691951;83;25885;-71
2021/03/12 02:32:17;;;;;;;30.12;20.50;;;;;;;4.44;84.57;98735.87;1709300;81;25598;-71
2021/03/12 02:34:47;;;;;;;32.83;21.00;;;;;;;4.45;84.21;98754.31;1747961;80;25781;-71
2021/03/12 02:37:19;;;;;;;29.05;20.02;;;;;;;4.45;84.24;98739.59;1751782;80;25674;-71
2021/03/12 02:39:53;;;;;;;32.23;18.20;;;;;;;4.47;84.19;98737.32;1700969;80;25676;-71
2021/03/12 02:42:21;;;;;;;29.25;20.23;;;;;;;4.49;84.34;98740.55;1733271;80;26531;-71
2021/03/12 02:44:50;;;;;;;32.40;20.25;;;;;;;4.48;84.29;98734.58;1691446;81;25751;-71
2021/03/12 02:47:25;;;;;;;30.08;21.45;;;;;;;4.50;84.21;98737.81;1665022;83;25928;-70
2021/03/12 02:49:54;;;;;;;28.00;19.00;;;;;;;4.51;84.50;98736.83;1714291;81;25770;-68
2021/03/12 02:52:22;;;;;;;28.75;20.90;;;;;;;4.52;84.46;98733.75;1721921;80;25678;-68
2021/03/12 02:54:50;;;;;;;29.50;20.57;;;;;;;4.53;84.35;98725.84;1733607;80;26052;-68
2021/03/12 02:57:21;;;;;;;26.10;18.73;;;;;;;4.55;84.30;98739.88;1724702;80;25839;-68
2021/03/12 02:59:54;;;;;;;29.80;19.00;;;;;;;4.55;84.30;98739.88;1753699;79;25606;-68
2021/03/12 03:02:35;;;;;;;29.37;20.57;;;;;;;4.55;84.32;98726.95;1736763;81;25751;-68
2021/03/12 03:05:08;;;;;;;28.10;20.52;;;;;;;4.55;84.02;98726.45;1737754;80;25659;-68
2021/03/12 03:07:37;;;;;;;25.02;18.35;;;;;;;4.55;83.83;98726.95;1729632;81;26511;-68
2021/03/12 03:10:10;;;;;;;29.52;19.20;;;;;;;4.55;83.86;98727.75;1733357;81;25704;-68
2021/03/12 03:12:37;;;;;;;24.67;18.20;;;;;;;4.56;84.03;98731.17;1732400;80;25768;-68
2021/03/12 03:15:05;;;;;;;31.12;21.15;;;;;;;4.56;83.96;98731.97;1726631;81;25855;-68
2021/03/12 03:17:36;;;;;;;26.23;19.60;;;;;;;4.58;83.88;98742.97;1732116;81;25301;-68
2021/03/12 03:20:07;;;;;;;27.75;19.30;;;;;;;4.62;83.97;98749.91;1731570;81;25791;-68
2021/03/12 03:22:33;;;;;;;24.95;15.65;;;;;;;4.64;83.67;98757.02;1717981;80;25804;-69
2021/03/12 03:25:00;;;;;;;25.17;17.05;;;;;;;4.62;83.89;98763.64;1766968;78;25762;-70
2021/03/12 03:27:29;;;;;;;26.15;17.95;;;;;;;4.62;84.12;98755.88;1726353;80;25739;-70
2021/03/12 03:29:55;;;;;;;26.77;18.67;;;;;;;4.65;83.97;98762.50;1717378;79;25636;-71
2021/03/12 03:32:22;;;;;;;26.62;18.30;;;;;;;4.64;83.72;98759.11;1734110;79;25836;-71
2021/03/12 03:34:48;;;;;;;26.05;17.20;;;;;;;4.65;83.66;98762.50;1770780;79;25724;-71
2021/03/12 03:37:15;;;;;;;29.72;18.80;;;;;;;4.62;83.74;98759.76;1744732;79;25644;-71
2021/03/12 03:39:43;;;;;;;25.45;19.20;;;;;;;4.62;83.67;98754.58;1760178;80;26319;-70
2021/03/12 03:42:11;;;;;;;27.37;18.30;;;;;;;4.61;83.70;98755.56;1744567;80;25733;-70
2021/03/12 03:44:40;;;;;;;23.55;17.25;;;;;;;4.61;83.47;98757.33;1787283;77;25755;-70
2021/03/12 03:47:09;;;;;;;24.47;17.40;;;;;;;4.62;83.55;98761.05;1751267;81;25801;-70
2021/03/12 03:49:36;;;;;;;25.70;19.20;;;;;;;4.62;83.44;98758.47;1726423;81;25937;-70
2021/03/12 03:52:05;;;;;;;26.15;17.70;;;;;;;4.64;83.67;98750.55;1755589;77;25352;-70
2021/03/12 03:54:37;;;;;;;25.55;18.45;;;;;;;4.65;83.59;98749.56;1789040;77;25612;-70
2021/03/12 03:57:07;;;;;;;24.98;17.80;;;;;;;4.63;83.41;98750.20;1788211;78;25940;-71
2021/03/12 03:59:38;;;;;;;25.27;18.40;;;;;;;4.61;83.26;98750.85;1799676;77;25949;-70
2021/03/12 04:02:08;;;;;;;25.00;18.73;;;;;;;4.61;83.25;98757.33;1791518;78;25747;-70
2021/03/12 04:04:36;;;;;;;26.17;17.92;;;;;;;4.59;83.27;98761.39;1782579;77;25709;-70
2021/03/12 04:07:05;;;;;;;26.02;17.52;;;;;;;4.60;83.23;98773.83;1741977;80;25922;-70
2021/03/12 04:09:33;;;;;;;26.83;17.40;;;;;;;4.56;83.42;98759.63;1787825;78;25718;-70
2021/03/12 04:12:00;;;;;;;25.65;18.10;;;;;;;4.56;83.28;98771.27;1744817;79;25261;-70
2021/03/12 04:14:27;;;;;;;27.17;18.62;;;;;;;4.57;83.22;98778.84;1722685;81;25970;-70
2021/03/12 04:16:54;;;;;;;25.10;17.15;;;;;;;4.58;83.19;98786.95;1761490;78;25743;-70
2021/03/12 04:19:22;;;;;;;25.82;18.90;;;;;;;4.58;83.31;98793.88;1789134;79;25757;-70
2021/03/12 04:21:49;;;;;;;24.37;16.62;;;;;;;4.59;83.44;98795.52;1724974;80;25660;-71
2021/03/12 04:24:16;;;;;;;26.15;18.65;;;;;;;4.60;83.72;98794.53;1742503;79;25364;-70
2021/03/12 04:26:45;;;;;;;24.95;17.17;;;;;;;4.62;83.49;98802.95;1741144;79;25853;-71
2021/03/12 04:29:13;;;;;;;25.62;16.97;;;;;;;4.61;83.66;98803.89;1765872;80;25572;-71
2021/03/12 04:31:39;;;;;;;25.12;17.23;;;;;;;4.61;83.93;98806.02;1770438;79;25715;-70
2021/03/12 04:34:06;;;;;;;25.60;17.05;;;;;;;4.61;83.61;98807.31;1766205;79;25817;-70
2021/03/12 04:36:33;;;;;;;24.47;16.62;;;;;;;4.63;83.51;98809.72;1782586;78;25702;-70
2021/03/12 04:39:03;;;;;;;25.60;17.25;;;;;;;4.64;83.64;98808.28;1774173;80;25677;-70
2021/03/12 04:41:30;;;;;;;27.40;16.80;;;;;;;4.65;83.62;98810.38;1761383;80;25651;-70
2021/03/12 04:43:57;;;;;;;23.27;16.67;;;;;;;4.65;83.74;98806.00;1779344;79;25769;-71
2021/03/12 04:46:24;;;;;;;27.75;18.52;;;;;;;4.67;83.81;98810.53;1762738;80;25673;-71
2021/03/12 04:48:53;;;;;;;26.30;18.23;;;;;;;4.71;83.63;98812.29;1763933;79;25718;-70
2021/03/12 04:51:21;;;;;;;23.98;17.32;;;;;;;4.73;83.55;98806.97;1772231;79;25804;-71
2021/03/12 04:53:49;;;;;;;21.73;16.35;;;;;;;4.76;83.54;98807.92;1777228;78;26521;-71
2021/03/12 04:56:16;;;;;;;22.22;16.27;;;;;;;4.77;83.57;98809.03;1784870;78;25691;-71
2021/03/12 04:58:44;;;;;;;25.68;17.15;;;;;;;4.80;83.58;98805.31;1813461;76;27151;-71
2021/03/12 05:01:11;;;;;;;25.40;16.65;;;;;;;4.82;83.42;98804.66;1797749;78;25662;-71
2021/03/12 05:03:39;;;;;;;22.25;15.68;;;;;;;4.85;83.36;98801.73;1794219;77;25744;-71
2021/03/12 05:06:11;;;;;;;25.27;16.50;;;;;;;4.88;83.60;98804.82;1782739;78;25737;-71
2021/03/12 05:08:39;;;;;;;25.60;17.52;;;;;;;4.90;83.35;98811.11;1769043;78;25800;-71
2021/03/12 05:11:09;;;;;;;23.67;17.35;;;;;;;4.90;83.32;98813.70;1775750;78;25884;-70
2021/03/12 05:13:51;;;;;;;23.42;17.27;;;;;;;4.93;83.25;98813.85;1786706;77;25638;-71
2021/03/12 05:16:21;;;;;;;24.65;16.40;;;;;;;4.92;83.20;98814.34;1772797;77;26104;-70
2021/03/12 05:18:48;;;;;;;;;;;;;;;4.92;83.25;98825.19;1793860;77;26125;-70
2021/03/12 05:21:15;;;;;;;25.23;16.40;;;;;;;4.91;83.20;98824.39;1797691;78;25659;-70
2021/03/12 05:23:41;;;;;;;23.80;16.12;;;;;;;4.90;83.25;98827.94;1802113;78;26382;-70
2021/03/12 05:26:10;;;;;;;21.60;15.70;;;;;;;4.90;83.13;98828.73;1779788;77;25612;-70
2021/03/12 05:28:37;;;;;;;22.48;15.95;;;;;;;4.90;83.10;98828.73;1760002;79;25831;-70
2021/03/12 05:31:03;;;;;;;22.15;14.23;;;;;;;4.93;82.91;98831.48;1781149;78;25694;-70
2021/03/12 05:33:30;;;;;;;24.15;16.07;;;;;;;4.93;82.87;98834.07;1772417;78;26530;-70
2021/03/12 05:35:57;;;;;;;22.55;15.72;;;;;;;4.95;82.77;98837.80;1782166;78;25860;-70
2021/03/12 05:38:25;;;;;;;25.35;15.38;;;;;;;4.95;82.67;98836.02;1746276;80;25661;-70
2021/03/12 05:40:53;;;;;;;23.60;15.18;;;;;;;4.96;82.56;98844.09;1758667;78;25828;-70
2021/03/12 05:43:19;;;;;;;22.77;15.15;;;;;;;5.00;82.49;98836.33;1789852;78;25730;-70
2021/03/12 05:45:47;;;;;;;25.88;15.78;;;;;;;5.04;82.44;98836.79;1719627;79;25675;-70
2021/03/12 05:48:15;;;;;;;24.02;16.50;;;;;;;5.06;82.38;98855.56;1780337;78;26812;-70
2021/03/12 05:50:42;;;;;;;23.65;15.18;;;;;;;5.11;82.35;98862.34;1759448;80;25810;-70
2021/03/12 05:53:09;;;;;;;25.88;15.83;;;;;;;5.11;82.39;98865.74;1761946;79;25262;-70
2021/03/12 05:55:37;;;;;;;24.65;15.98;;;;;;;5.10;82.48;98871.07;1791437;78;25739;-70
2021/03/12 05:58:04;;;;;;;26.97;14.43;;;;;;;5.08;82.51;98881.61;1760148;79;26543;-69
2021/03/12 06:00:31;;;;;;;19.95;11.83;;;;;;;5.06;83.09;98882.75;1789015;77;25876;-69
2021/03/12 06:02:57;;;;;;;23.67;14.33;;;;;;;5.04;83.44;98872.55;1799324;77;25245;-66
2021/03/12 06:05:27;;;;;;;20.82;13.30;;;;;;;5.04;83.65;98872.55;1792374;77;25313;-69
2021/03/12 06:07:55;;;;;;;17.05;12.30;;;;;;;5.02;84.06;98868.05;1798852;77;25867;-67
2021/03/12 06:10:23;;;;;;;19.37;12.80;;;;;;;5.03;84.06;98861.88;1779225;79;25792;-66
2021/03/12 06:12:54;;;;;;;18.92;11.43;;;;;;;5.04;84.19;98863.48;1786268;78;26582;-67
2021/03/12 06:15:18;;;;;;;18.37;11.78;;;;;;;5.03;84.27;98863.67;1700237;83;25792;-68
2021/03/12 06:17:47;;;;;;;17.65;11.63;;;;;;;5.04;84.76;98865.27;1763173;79;25815;-67
2021/03/12 06:20:21;;;;;;;19.80;12.10;;;;;;;5.04;84.36;98871.25;1754966;79;26279;-71
2021/03/12 06:22:56;;;;;;;19.48;11.15;;;;;;;5.06;84.60;98880.16;1757153;80;25777;-71
2021/03/12 06:25:25;;;;;;;19.52;12.50;;;;;;;5.05;84.93;98882.45;1752477;80;25635;-71
2021/03/12 06:28:18;;;;;;;17.70;10.20;;;;;;;5.05;84.58;98892.80;1752092;80;30885;-70
2021/03/12 06:31:25;;;;;;;18.40;11.63;;;;;;;5.07;84.44;98890.83;1753085;80;25617;-71
2021/03/12 06:34:11;;;;;;;20.05;11.50;;;;;;;5.06;84.85;98898.29;1752895;80;25711;-71
2021/03/12 06:36:54;;;;;;;17.48;10.95;;;;;;;5.05;84.78;98913.52;1694542;82;25636;-71
2021/03/12 06:39:36;;;;;;;17.05;11.75;;;;;;;5.02;85.17;98922.42;1707386;81;25874;-70
2021/03/12 06:42:17;;;;;;;22.25;11.73;;;;;;;5.00;85.34;98921.77;1711998;81;25998;-70
2021/03/12 06:44:45;;;;;;;19.25;11.75;;;;;;;5.01;85.06;98909.13;1715338;81;25642;-70
2021/03/12 06:47:13;;;;;;;19.65;12.45;;;;;;;5.04;85.15;98915.27;1723793;81;25882;-70
2021/03/12 06:49:59;;;;;;;18.10;11.30;;;;;;;5.05;85.13;98916.91;1742350;80;25366;-70
2021/03/12 06:52:35;;;;;;;20.00;12.68;;;;;;;5.05;85.51;98919.98;1718012;80;25891;-70
2021/03/12 06:55:06;;;;;;;18.82;11.88;;;;;;;5.01;85.82;98924.67;1728397;80;25491;-70
2021/03/12 06:57:40;;;;;;;20.70;11.88;;;;;;;5.04;85.93;98927.41;1735668;80;25976;-71
2021/03/12 07:00:09;;;;;;;20.10;13.83;;;;;;;5.04;85.78;98925.63;1698093;81;25741;-71
2021/03/12 07:02:38;;;;;;;19.27;12.82;;;;;;;5.05;85.86;98926.46;1702899;81;25841;-71
2021/03/12 07:05:07;;;;;;;21.20;13.15;;;;;;;5.06;86.29;98934.05;1720881;81;26527;-71
2021/03/12 07:07:50;;;;;;;20.57;13.15;;;;;;;5.06;86.24;98935.34;1736142;80;25864;-70
2021/03/12 07:10:18;;;;;;;20.05;13.40;;;;;;;5.09;86.49;98935.01;1665042;82;25734;-68
2021/03/12 07:12:52;;;;;;;19.60;12.70;;;;;;;5.12;86.67;98941.15;1781351;78;25820;-69
2021/03/12 07:15:26;;;;;;;20.48;12.30;;;;;;;5.14;86.86;98935.02;1768828;78;25684;-69
2021/03/12 07:17:55;;;;;;;21.45;13.15;;;;;;;5.17;87.07;98949.73;1748362;79;25754;-70
2021/03/12 07:20:24;;;;;;;20.43;12.18;;;;;;;5.17;87.04;98952.81;1735579;79;26274;-70
2021/03/12 07:22:52;;;;;;;20.62;12.53;;;;;;;5.17;87.10;98959.28;1718581;80;25481;-66
2021/03/12 07:25:21;;;;;;;16.87;12.25;;;;;;;5.17;86.88;98957.50;1718272;80;25874;-69
2021/03/12 07:27:52;;;;;;;16.80;11.05;;;;;;;5.20;86.96;98957.66;1763724;78;25779;-71
2021/03/12 07:30:22;;;;;;;15.48;11.48;;;;;;;5.22;87.26;98960.90;1779387;78;25999;-70
2021/03/12 07:32:53;;;;;;;15.38;10.95;;;;;;;5.22;87.59;98964.78;1752773;79;25915;-71
2021/03/12 07:35:24;;;;;;;17.25;11.48;;;;;;;5.24;87.67;98962.84;1770148;78;25919;-71
2021/03/12 07:38:07;;;;;;;16.20;10.55;;;;;;;5.29;87.75;98976.08;1771166;79;25714;-71
2021/03/12 07:40:35;;;;;;;18.40;10.72;;;;;;;5.34;87.86;98969.92;1758477;79;25747;-71
2021/03/12 07:43:05;;;;;;;18.50;10.90;;;;;;;5.36;87.96;98975.75;1747988;79;26879;-71
2021/03/12 07:45:44;;;;;;;15.83;10.72;;;;;;;5.39;87.92;98976.72;1742308;80;25678;-72
2021/03/12 07:48:11;;;;;;;19.87;10.90;;;;;;;5.42;88.05;98983.35;1776555;78;25765;-71
2021/03/12 07:50:40;;;;;;;13.73;9.93;;;;;;;5.44;88.12;98982.22;1815568;77;25636;-71
2021/03/12 07:53:09;;;;;;;16.07;10.63;;;;;;;5.46;88.07;98989.34;1790509;77;25731;-70
2021/03/12 07:55:48;;;;;;;16.15;11.48;;;;;;;5.48;88.00;98994.34;1777338;78;26684;-70
2021/03/12 07:58:50;;;;;;;15.30;9.95;;;;;;;5.50;88.26;98989.31;1787887;78;25644;-71
2021/03/12 08:01:22;;;;;;;16.73;10.98;;;;;;;5.51;88.04;98988.36;1783188;77;26399;-70
2021/03/12 08:03:51;;;;;;;18.10;11.57;;;;;;;5.54;88.10;98988.02;1782104;78;25399;-70
2021/03/12 08:06:25;;;;;;;15.30;9.38;;;;;;;5.58;87.87;98992.38;1734125;80;32460;-71
2021/03/12 08:09:03;;;;;;;20.05;10.63;;;;;;;5.62;88.01;98991.08;1649286;84;25923;-73
2021/03/12 08:11:43;;;;;;;15.88;10.15;;;;;;;5.68;87.81;99001.27;1578862;88;25835;-73
2021/03/12 08:14:19;;;;;;;17.45;10.78;;;;;;;5.75;87.84;98999.11;1583295;87;25915;-73
2021/03/12 08:17:05;;;;;;;16.80;11.15;;;;;;;5.83;87.76;99001.37;1613765;86;25817;-73
2021/03/12 08:19:40;;;;;;;17.23;10.95;;;;;;;5.92;87.58;99014.61;1626268;84;25774;-73
2021/03/12 08:22:32;;;;;;;16.05;10.68;;;;;;;6.00;87.35;99013.31;1625116;84;26888;-73
2021/03/12 08:25:00;;;;;;;15.25;10.15;;;;;;;6.02;87.05;99025.63;1630055;84;25737;-72
2021/03/12 08:27:49;;;;;;;21.93;11.12;;;;;;;6.03;86.76;99017.35;1636987;86;25847;-72
2021/03/12 08:30:34;;;;;;;15.18;10.08;;;;;;;6.05;86.75;99025.78;1600531;87;25653;-72
2021/03/12 08:33:07;;;;;;;17.90;10.15;;;;;;;6.07;86.60;99026.42;1619076;85;25745;-72
2021/03/12 08:35:44;;;;;;;15.40;9.70;;;;;;;6.12;86.63;99028.83;1638037;84;26664;-73
2021/03/12 08:38:35;;;;;;;13.00;8.05;;;;;;;6.20;86.46;99027.99;1574588;88;25801;-72
2021/03/12 08:41:16;;;;;;;15.85;10.00;;;;;;;6.27;86.21;99028.11;1557884;88;25829;-71
2021/03/12 08:43:54;;;;;;;13.88;9.18;;;;;;;6.32;86.16;99027.91;1574587;88;26019;-71
2021/03/12 08:46:28;;;;;;;15.13;8.35;;;;;;;6.38;86.06;99029.84;1631971;82;25810;-71
2021/03/12 08:49:00;;;;;;;19.48;9.38;;;;;;;6.40;85.26;99034.36;1680967;83;25898;-73
2021/03/12 08:51:32;;;;;;;14.30;9.00;;;;;;;6.44;85.54;99044.73;1674827;83;25644;-72
2021/03/12 08:54:02;;;;;;;15.53;8.93;;;;;;;6.52;85.48;99043.05;1678558;83;25893;-72
2021/03/12 08:56:34;;;;;;;15.58;10.05;;;;;;;6.58;85.18;99044.98;1690341;82;25642;-73
2021/03/12 08:59:04;;;;;;;14.63;10.00;;;;;;;6.64;85.28;99042.49;1689367;82;25681;-72
2021/03/12 09:01:49;;;;;;;15.55;11.28;;;;;;;6.72;84.83;99051.22;1703697;82;25744;-70
2021/03/12 09:04:17;;;;;;;16.10;9.40;;;;;;;6.75;84.81;99049.08;1702348;82;25767;-70
2021/03/12 09:06:48;;;;;;;13.35;8.83;;;;;;;6.81;84.79;99054.06;1703775;81;26288;-71
2021/03/12 09:09:17;;;;;;;17.50;9.73;;;;;;;6.87;84.54;99065.89;1676427;83;25808;-71
2021/03/12 09:11:45;;;;;;;16.23;9.65;;;;;;;6.94;84.12;99063.39;1610346;82;25787;-72
2021/03/12 09:14:13;;;;;;;14.63;9.18;;;;;;;6.96;83.69;99068.43;1704390;80;27274;-73
2021/03/12 09:16:40;;;;;;;14.43;8.13;;;;;;;7.00;83.32;99059.29;1687202;82;25882;-73
2021/03/12 09:19:13;;;;;;;10.60;6.90;;;;;;;7.03;82.70;99083.62;1732559;80;26188;-73
2021/03/12 09:21:44;;;;;;;14.45;8.03;;;;;;;7.05;82.43;99068.17;1712187;80;25729;-72
2021/03/12 09:24:10;;;;;;;17.95;8.45;;;;;;;7.10;82.64;99082.75;1665107;84;25890;-73
2021/03/12 09:26:38;;;;;;;10.70;6.60;;;;;;;7.15;82.32;99092.63;1669971;83;26049;-74
2021/03/12 09:29:13;;;;;;;15.45;8.60;;;;;;;7.15;81.91;99093.10;1713543;80;25903;-69
2021/03/12 09:31:41;;;;;;;12.63;8.23;;;;;;;7.23;82.38;99100.84;1704289;80;26049;-70
2021/03/12 09:34:18;;;;;;;11.97;7.70;;;;;;;7.22;81.52;99100.03;1709988;81;25841;-74
2021/03/12 09:36:47;;;;;;;;;;;;;;;7.22;81.70;99108.33;1711362;81;26753;-70
2021/03/12 09:39:32;;;;;;;16.73;8.98;;;;;;;7.20;81.56;99107.69;1707408;80;25929;-70
2021/03/12 09:42:07;;;;;;;11.83;9.10;;;;;;;7.17;81.57;99093.25;1695847;82;26086;-72
2021/03/12 09:44:36;;;;;;;12.73;8.33;;;;;;;7.18;81.95;99100.58;1663698;83;36441;-68
2021/03/12 09:47:09;;;;;;;17.32;10.25;;;;;;;7.16;81.39;99099.94;1672345;83;25896;-68
2021/03/12 09:49:42;;;;;;;14.70;10.28;;;;;;;7.12;81.33;99104.68;1727335;80;25741;-68
2021/03/12 09:52:12;;;;;;;15.65;10.30;;;;;;;7.11;81.71;99106.44;1688845;80;26432;-70
2021/03/12 09:54:43;;;;;;;15.30;9.40;;;;;;;7.12;81.79;99104.68;1745947;79;26343;-67
2021/03/12 09:57:12;;;;;;;15.03;10.50;;;;;;;7.14;81.95;99106.59;1766708;79;25856;-70
2021/03/12 09:59:39;;;;;;;12.98;9.08;;;;;;;7.15;82.13;99110.83;1787621;78;25394;-70
2021/03/12 10:02:18;;;;;;;14.20;8.00;;;;;;;7.11;82.05;99110.84;1776159;78;25789;-73
2021/03/12 10:05:06;;;;;;;15.05;8.58;;;;;;;7.05;82.01;99114.14;1783725;78;25740;-70
2021/03/12 10:07:41;;;;;;;15.18;8.55;;;;;;;7.04;82.29;99119.02;1732964;80;25739;-70
2021/03/12 10:10:26;;;;;;;15.20;9.83;;;;;;;6.98;82.67;99115.80;1740191;80;25726;-71
2021/03/12 10:12:56;;;;;;;18.30;9.68;;;;;;;6.93;82.65;99115.50;1708488;81;25787;-71
2021/03/12 10:15:28;;;;;;;16.15;11.20;;;;;;;6.87;82.82;99130.81;1741780;80;33289;-71
2021/03/12 10:18:01;;;;;;;9.45;5.17;;;;;;;6.79;82.93;99165.09;1745133;80;25912;-71
2021/03/12 10:20:35;;;;;;;5.87;3.45;;;;;;;6.41;82.18;99189.58;1733397;80;25883;-72
2021/03/12 10:23:06;;;;;;;5.37;2.83;;;;;;;6.00;82.07;99178.83;1727025;81;25851;-72
2021/03/12 10:25:38;;;;;;;5.12;2.65;;;;;;;5.67;82.17;99172.01;1758082;79;25953;-71
2021/03/12 10:28:11;;;;;;;4.25;2.80;;;;;;;5.45;83.05;99173.47;1759800;79;25692;-71
2021/03/12 10:30:50;;;;;;;8.43;4.87;;;;;;;5.35;83.51;99181.41;1743792;79;25633;-69
2021/03/12 10:33:22;;;;;;;10.68;6.85;;;;;;;5.31;83.71;99183.48;1760841;79;26835;-73
2021/03/12 10:35:52;;;;;;;13.98;8.88;;;;;;;5.27;83.70;99184.80;1755701;79;25368;-69
2021/03/12 10:38:28;;;;;;;14.18;8.45;;;;;;;5.17;83.66;99184.61;1767783;79;25801;-68
2021/03/12 10:41:06;;;;;;;11.18;6.20;;;;;;;5.10;84.02;99176.19;1764726;79;25601;-69
2021/03/12 10:43:34;;;;;;;12.75;6.58;;;;;;;5.10;84.61;99191.73;1690473;82;25995;-70
2021/03/12 10:46:05;;;;;;;11.55;5.97;;;;;;;5.10;84.72;99187.02;1740874;79;25836;-69
2021/03/12 10:48:45;;;;;;;16.80;5.95;;;;;;;5.11;85.12;99189.95;1760233;79;25707;-72
2021/03/12 10:51:14;;;;;;;8.73;5.47;;;;;;;5.12;85.36;99185.08;1763519;79;25813;-73
2021/03/12 10:53:55;;;;;;;11.55;5.70;;;;;;;5.14;85.63;99187.53;1782956;77;25886;-73
2021/03/12 10:56:24;;;;;;;10.35;6.75;;;;;;;5.18;85.60;99182.34;1790713;77;25696;-68
2021/03/12 10:58:53;;;;;;;18.23;9.15;;;;;;;5.21;85.87;99181.55;1786063;77;26533;-68
2021/03/12 11:01:28;;;;;;;10.63;6.83;;;;;;;5.28;85.78;99178.63;1754340;79;25617;-69
2021/03/12 11:03:58;;;;;;;12.73;7.65;;;;;;;5.43;86.37;99175.40;1744197;79;25789;-70
2021/03/12 11:06:30;;;;;;;16.12;7.97;;;;;;;5.60;86.88;99166.67;1752282;79;27459;-69
2021/03/12 11:08:56;;;;;;;15.13;8.48;;;;;;;5.70;86.38;99179.00;1737059;80;26314;-69
2021/03/12 11:11:23;;;;;;;11.85;7.90;;;;;;;5.79;86.55;99175.41;1753672;79;25809;-71
2021/03/12 11:13:51;;;;;;;13.30;7.78;;;;;;;5.93;86.60;99180.91;1751225;79;25718;-69
2021/03/12 11:16:18;;;;;;;10.13;6.40;;;;;;;6.06;86.74;99189.52;1760828;79;26418;-70
2021/03/12 11:18:45;;;;;;;13.15;6.95;;;;;;;6.13;86.71;99199.05;1762665;79;25307;-69
2021/03/12 11:21:15;;;;;;;11.70;6.70;;;;;;;6.19;86.49;99188.50;1734951;80;25682;-69
2021/03/12 11:23:43;;;;;;;12.33;8.13;;;;;;;6.23;86.29;99191.91;1730420;79;26243;-68
2021/03/12 11:26:10;;;;;;;11.80;6.97;;;;;;;6.28;86.13;99187.52;1765419;79;25621;-70
2021/03/12 11:28:36;;;;;;;10.08;6.67;;;;;;;6.35;86.34;99189.75;1760637;79;25803;-70
2021/03/12 11:31:04;;;;;;;11.63;7.42;;;;;;;6.52;86.59;99187.11;1751820;79;26086;-72
2021/03/12 11:33:31;;;;;;;12.13;7.03;;;;;;;6.69;86.35;99195.67;1748042;80;25743;-73
2021/03/12 11:36:00;;;;;;;12.03;7.55;;;;;;;6.80;86.21;99184.41;1749824;80;25732;-72
2021/03/12 11:38:28;;;;;;;10.15;5.95;;;;;;;6.95;86.11;99193.58;1756883;80;25756;-70
2021/03/12 11:40:56;;;;;;;8.50;5.35;;;;;;;7.03;85.53;99194.83;1753048;80;25796;-69
2021/03/12 11:43:22;;;;;;;12.03;6.50;;;;;;;7.01;84.74;99202.47;1749182;80;25933;-68
2021/03/12 11:45:49;;;;;;;14.80;7.78;;;;;;;7.00;84.87;99198.27;1749535;80;25625;-68
2021/03/12 11:48:15;;;;;;;11.95;6.47;;;;;;;7.00;84.76;99202.16;1782628;78;25790;-69